ETH605 LTFM-LSGG
Flight info
| Callsign | ETH605 |
|---|---|
| Flight time | 2h 40m |
| Altitude | 40000 |
| Route | VADEN DCT BAKLO DCT GOL DCT DOLAP DCT OBAGI DCT MONID DCT RUGOG DCT RIFEN DCT SAFFA DCT ELMUR DCT RIPUS DCT DITON DCT LUTIX DCT BENOT |
| Aircraft | A359/H-SDE2E3GHIJ3J4J5LM1ORWXY/LB1D1 |
Departure
| Time | 2026-02-18 10:35 |
|---|---|
| Airport | İstanbul Airport (LTFM) |
Arrival
| Time | 2026-02-18 13:15 |
|---|---|
| Airport | Geneva International Airport (LSGG) |
| Time | Latitude | Longitude | Altitude | Speed | Heading |
|---|---|---|---|---|---|
| 2026-02-18 10:18 | 41.26538 | 28.74181 | 340 ft | 0 kts | 127° |
| 2026-02-18 10:21 | 41.26560 | 28.74100 | 335 ft | 4 kts | 95° |
| 2026-02-18 10:21 | 41.26562 | 28.74066 | 335 ft | 4 kts | 71° |
| 2026-02-18 10:22 | 41.26550 | 28.74036 | 335 ft | 4 kts | 30° |
| 2026-02-18 10:22 | 41.26540 | 28.74031 | 335 ft | 0 kts | 357° |
| 2026-02-18 10:23 | 41.26541 | 28.74031 | 340 ft | 0 kts | 357° |
| 2026-02-18 10:26 | 41.26542 | 28.74030 | 336 ft | 1 kts | 357° |
| 2026-02-18 10:26 | 41.26552 | 28.74030 | 338 ft | 3 kts | 357° |
| 2026-02-18 10:27 | 41.26587 | 28.74026 | 337 ft | 7 kts | 355° |
| 2026-02-18 10:27 | 41.26651 | 28.74021 | 336 ft | 11 kts | 357° |
| 2026-02-18 10:27 | 41.26739 | 28.74017 | 337 ft | 14 kts | 359° |
| 2026-02-18 10:27 | 41.26838 | 28.74016 | 340 ft | 13 kts | 359° |
| 2026-02-18 10:28 | 41.26896 | 28.74015 | 336 ft | 12 kts | 359° |
| 2026-02-18 10:28 | 41.26995 | 28.74011 | 337 ft | 10 kts | 352° |
| 2026-02-18 10:28 | 41.27036 | 28.73980 | 339 ft | 6 kts | 312° |
| 2026-02-18 10:28 | 41.27056 | 28.73920 | 336 ft | 8 kts | 276° |
| 2026-02-18 10:29 | 41.27050 | 28.73836 | 339 ft | 10 kts | 265° |
| 2026-02-18 10:29 | 41.27046 | 28.73603 | 336 ft | 15 kts | 269° |
| 2026-02-18 10:29 | 41.27045 | 28.73471 | 337 ft | 13 kts | 269° |
| 2026-02-18 10:30 | 41.27043 | 28.73358 | 337 ft | 12 kts | 268° |
| 2026-02-18 10:30 | 41.27041 | 28.73282 | 340 ft | 12 kts | 268° |
| 2026-02-18 10:30 | 41.27040 | 28.73148 | 340 ft | 9 kts | 269° |
| 2026-02-18 10:30 | 41.27039 | 28.73094 | 340 ft | 8 kts | 268° |
| 2026-02-18 10:31 | 41.27015 | 28.73003 | 336 ft | 8 kts | 217° |
| 2026-02-18 10:31 | 41.26978 | 28.72993 | 337 ft | 9 kts | 184° |
| 2026-02-18 10:31 | 41.26903 | 28.72992 | 336 ft | 12 kts | 179° |
| 2026-02-18 10:31 | 41.26819 | 28.72994 | 336 ft | 12 kts | 179° |
| 2026-02-18 10:32 | 41.26758 | 28.72987 | 336 ft | 6 kts | 204° |
| 2026-02-18 10:32 | 41.26728 | 28.72940 | 335 ft | 5 kts | 240° |
| 2026-02-18 10:32 | 41.26724 | 28.72908 | 338 ft | 0 kts | 263° |
| 2026-02-18 10:32 | 41.26724 | 28.72907 | 338 ft | 1 kts | 263° |
| 2026-02-18 10:33 | 41.26723 | 28.72901 | 339 ft | 1 kts | 263° |
| 2026-02-18 10:33 | 41.26719 | 28.72855 | 340 ft | 7 kts | 264° |
| 2026-02-18 10:33 | 41.26713 | 28.72771 | 335 ft | 11 kts | 264° |
| 2026-02-18 10:34 | 41.26708 | 28.72654 | 338 ft | 14 kts | 268° |
| 2026-02-18 10:34 | 41.26709 | 28.72562 | 339 ft | 9 kts | 284° |
| 2026-02-18 10:34 | 41.26756 | 28.72516 | 339 ft | 9 kts | 354° |
| 2026-02-18 10:34 | 41.26836 | 28.72509 | 338 ft | 26 kts | 358° |
| 2026-02-18 10:35 | 41.27328 | 28.72482 | 336 ft | 117 kts | 359° |
| 2026-02-18 10:35 | 41.28361 | 28.72469 | 778 ft | 163 kts | 354° |
| 2026-02-18 10:35 | 41.29549 | 28.72501 | 1930 ft | 180 kts | 358° |
| 2026-02-18 10:35 | 41.30787 | 28.72615 | 2748 ft | 178 kts | 359° |
| 2026-02-18 10:36 | 41.32006 | 28.72782 | 3468 ft | 176 kts | 1° |
| 2026-02-18 10:36 | 41.33278 | 28.72812 | 3900 ft | 192 kts | 352° |
| 2026-02-18 10:36 | 41.33737 | 28.72777 | 4025 ft | 199 kts | 351° |
| 2026-02-18 10:36 | 41.34211 | 28.72734 | 4128 ft | 208 kts | 351° |
| 2026-02-18 10:37 | 41.40172 | 28.68524 | 6122 ft | 257 kts | 296° |
| 2026-02-18 10:37 | 41.41082 | 28.66443 | 6748 ft | 262 kts | 295° |
| 2026-02-18 10:38 | 41.42011 | 28.64327 | 7421 ft | 266 kts | 296° |
| 2026-02-18 10:38 | 41.42959 | 28.62191 | 8102 ft | 269 kts | 296° |
| 2026-02-18 10:38 | 41.43923 | 28.60035 | 8842 ft | 272 kts | 296° |
| 2026-02-18 10:38 | 41.44898 | 28.57862 | 9561 ft | 275 kts | 296° |
| 2026-02-18 10:39 | 41.45889 | 28.55658 | 10217 ft | 280 kts | 296° |
| 2026-02-18 10:39 | 41.46917 | 28.53361 | 10592 ft | 296 kts | 296° |
| 2026-02-18 10:39 | 41.48000 | 28.50941 | 10906 ft | 312 kts | 296° |
| 2026-02-18 10:39 | 41.49141 | 28.48391 | 11248 ft | 328 kts | 296° |
| 2026-02-18 10:40 | 41.50313 | 28.45758 | 11568 ft | 340 kts | 296° |
| 2026-02-18 10:40 | 41.51536 | 28.43015 | 12075 ft | 345 kts | 297° |
| 2026-02-18 10:40 | 41.52772 | 28.40251 | 12636 ft | 349 kts | 297° |
| 2026-02-18 10:40 | 41.54022 | 28.37456 | 13195 ft | 353 kts | 297° |
| 2026-02-18 10:41 | 41.55286 | 28.34630 | 13740 ft | 356 kts | 297° |
| 2026-02-18 10:41 | 41.57838 | 28.28919 | 14772 ft | 360 kts | 297° |
| 2026-02-18 10:41 | 41.59058 | 28.25991 | 15290 ft | 361 kts | 294° |
| 2026-02-18 10:42 | 41.60178 | 28.22974 | 15831 ft | 363 kts | 292° |
| 2026-02-18 10:42 | 41.61292 | 28.19930 | 16363 ft | 366 kts | 293° |
| 2026-02-18 10:42 | 41.62424 | 28.16865 | 16889 ft | 369 kts | 293° |
| 2026-02-18 10:42 | 41.63572 | 28.13785 | 17414 ft | 372 kts | 294° |
| 2026-02-18 10:43 | 41.64733 | 28.10685 | 17931 ft | 374 kts | 294° |
| 2026-02-18 10:43 | 41.65905 | 28.07561 | 18402 ft | 377 kts | 294° |
| 2026-02-18 10:43 | 41.67093 | 28.04417 | 18853 ft | 380 kts | 295° |
| 2026-02-18 10:43 | 41.68409 | 28.01380 | 19317 ft | 384 kts | 299° |
| 2026-02-18 10:44 | 41.69851 | 27.98358 | 19776 ft | 387 kts | 300° |
| 2026-02-18 10:44 | 41.71328 | 27.95322 | 20229 ft | 390 kts | 300° |
| 2026-02-18 10:44 | 41.72811 | 27.92271 | 20649 ft | 392 kts | 300° |
| 2026-02-18 10:44 | 41.74303 | 27.89195 | 21054 ft | 395 kts | 300° |
| 2026-02-18 10:45 | 41.75803 | 27.86093 | 21477 ft | 397 kts | 300° |
| 2026-02-18 10:45 | 41.78821 | 27.79831 | 22303 ft | 402 kts | 300° |
| 2026-02-18 10:45 | 41.80339 | 27.76674 | 22707 ft | 404 kts | 300° |
| 2026-02-18 10:46 | 41.81846 | 27.73538 | 23100 ft | 406 kts | 300° |
| 2026-02-18 10:46 | 41.83383 | 27.70336 | 23458 ft | 409 kts | 300° |
| 2026-02-18 10:46 | 41.84924 | 27.67121 | 23801 ft | 411 kts | 300° |
| 2026-02-18 10:46 | 41.86473 | 27.63886 | 24166 ft | 413 kts | 300° |
| 2026-02-18 10:47 | 41.88030 | 27.60632 | 24525 ft | 415 kts | 300° |
| 2026-02-18 10:47 | 41.89593 | 27.57360 | 24882 ft | 417 kts | 300° |
| 2026-02-18 10:47 | 41.91165 | 27.54068 | 25243 ft | 419 kts | 300° |
| 2026-02-18 10:47 | 41.92744 | 27.50756 | 25620 ft | 421 kts | 300° |
| 2026-02-18 10:48 | 41.94323 | 27.47439 | 25984 ft | 423 kts | 299° |
| 2026-02-18 10:48 | 41.95916 | 27.44092 | 26375 ft | 426 kts | 299° |
| 2026-02-18 10:48 | 41.97517 | 27.40720 | 26784 ft | 428 kts | 299° |
| 2026-02-18 10:48 | 41.99122 | 27.37339 | 27220 ft | 430 kts | 299° |
| 2026-02-18 10:49 | 42.00737 | 27.33933 | 27626 ft | 433 kts | 299° |
| 2026-02-18 10:49 | 42.03975 | 27.27090 | 28452 ft | 440 kts | 299° |
| 2026-02-18 10:49 | 42.05628 | 27.23608 | 28895 ft | 443 kts | 300° |
| 2026-02-18 10:50 | 42.07479 | 27.20250 | 29308 ft | 449 kts | 306° |
| 2026-02-18 10:50 | 42.09500 | 27.17025 | 29743 ft | 453 kts | 307° |
| 2026-02-18 10:50 | 42.11594 | 27.13840 | 30111 ft | 456 kts | 308° |
| 2026-02-18 10:50 | 42.13740 | 27.10656 | 30511 ft | 459 kts | 309° |
| 2026-02-18 10:51 | 42.15170 | 27.08547 | 30735 ft | 461 kts | 308° |
| 2026-02-18 10:51 | 42.18074 | 27.04255 | 31258 ft | 464 kts | 308° |
| 2026-02-18 10:51 | 42.20248 | 27.01017 | 31597 ft | 467 kts | 308° |
| 2026-02-18 10:51 | 42.22425 | 26.97751 | 31917 ft | 470 kts | 308° |
| 2026-02-18 10:52 | 42.24614 | 26.94451 | 32231 ft | 472 kts | 307° |
| 2026-02-18 10:52 | 42.26804 | 26.91138 | 32523 ft | 475 kts | 307° |
| 2026-02-18 10:52 | 42.29004 | 26.87803 | 32815 ft | 477 kts | 307° |
| 2026-02-18 10:52 | 42.31190 | 26.84485 | 33108 ft | 479 kts | 307° |
| 2026-02-18 10:53 | 42.33408 | 26.81116 | 33383 ft | 481 kts | 307° |
| 2026-02-18 10:53 | 42.37876 | 26.74320 | 33990 ft | 483 kts | 307° |
| 2026-02-18 10:53 | 42.40103 | 26.70929 | 34330 ft | 483 kts | 307° |
| 2026-02-18 10:54 | 42.42334 | 26.67530 | 34654 ft | 483 kts | 307° |
| 2026-02-18 10:54 | 42.44562 | 26.64130 | 34990 ft | 482 kts | 306° |
| 2026-02-18 10:54 | 42.46789 | 26.60725 | 35306 ft | 482 kts | 306° |
| 2026-02-18 10:54 | 42.49018 | 26.57313 | 35598 ft | 482 kts | 306° |
| 2026-02-18 10:55 | 42.51231 | 26.53902 | 35866 ft | 482 kts | 305° |
| 2026-02-18 10:55 | 42.53233 | 26.50275 | 36131 ft | 477 kts | 298° |
| 2026-02-18 10:55 | 42.54841 | 26.46381 | 36413 ft | 471 kts | 290° |
| 2026-02-18 10:55 | 42.56088 | 26.42293 | 36746 ft | 467 kts | 286° |
| 2026-02-18 10:56 | 42.57210 | 26.38172 | 37043 ft | 466 kts | 285° |
| 2026-02-18 10:56 | 42.58265 | 26.34071 | 37331 ft | 465 kts | 284° |
| 2026-02-18 10:56 | 42.59300 | 26.29914 | 37619 ft | 465 kts | 284° |
| 2026-02-18 10:56 | 42.60317 | 26.25757 | 37916 ft | 464 kts | 284° |
| 2026-02-18 10:57 | 42.61334 | 26.21602 | 38190 ft | 464 kts | 284° |
| 2026-02-18 10:57 | 42.63390 | 26.13291 | 38625 ft | 464 kts | 284° |
| 2026-02-18 10:57 | 42.64428 | 26.09129 | 38793 ft | 465 kts | 284° |
| 2026-02-18 10:58 | 42.65471 | 26.04965 | 38958 ft | 466 kts | 284° |
| 2026-02-18 10:58 | 42.66514 | 26.00799 | 39123 ft | 466 kts | 284° |
| 2026-02-18 10:58 | 42.67558 | 25.96627 | 39301 ft | 466 kts | 284° |
| 2026-02-18 10:58 | 42.68600 | 25.92452 | 39474 ft | 466 kts | 284° |
| 2026-02-18 10:59 | 42.69640 | 25.88278 | 39653 ft | 466 kts | 284° |
| 2026-02-18 10:59 | 42.70679 | 25.84095 | 39759 ft | 467 kts | 284° |
| 2026-02-18 10:59 | 42.72754 | 25.75727 | 39778 ft | 467 kts | 284° |
| 2026-02-18 11:00 | 42.74823 | 25.67346 | 39775 ft | 467 kts | 284° |
| 2026-02-18 11:00 | 42.76883 | 25.58974 | 39774 ft | 466 kts | 284° |
| 2026-02-18 11:01 | 42.79944 | 25.46472 | 39783 ft | 466 kts | 284° |
| 2026-02-18 11:02 | 42.81983 | 25.38101 | 39782 ft | 466 kts | 284° |
| 2026-02-18 11:02 | 42.84018 | 25.29722 | 39787 ft | 465 kts | 284° |
| 2026-02-18 11:03 | 42.86048 | 25.21336 | 39789 ft | 465 kts | 284° |
| 2026-02-18 11:03 | 42.87726 | 25.14379 | 39790 ft | 465 kts | 284° |
| 2026-02-18 11:04 | 42.89743 | 25.05987 | 39795 ft | 465 kts | 284° |
| 2026-02-18 11:04 | 42.92090 | 24.96184 | 39800 ft | 465 kts | 284° |
| 2026-02-18 11:05 | 42.94093 | 24.87785 | 39801 ft | 465 kts | 284° |
| 2026-02-18 11:05 | 42.97087 | 24.75167 | 39808 ft | 466 kts | 284° |
| 2026-02-18 11:06 | 42.99077 | 24.66743 | 39811 ft | 466 kts | 284° |
| 2026-02-18 11:06 | 43.00730 | 24.59724 | 39812 ft | 467 kts | 284° |
| 2026-02-18 11:07 | 43.03035 | 24.49896 | 39816 ft | 467 kts | 284° |
| 2026-02-18 11:07 | 43.05013 | 24.41424 | 39819 ft | 468 kts | 284° |
| 2026-02-18 11:08 | 43.06986 | 24.32944 | 39820 ft | 468 kts | 284° |
| 2026-02-18 11:08 | 43.08954 | 24.24454 | 39819 ft | 468 kts | 284° |
| 2026-02-18 11:09 | 43.11719 | 24.11628 | 39817 ft | 468 kts | 282° |
| 2026-02-18 11:10 | 43.13380 | 24.03013 | 39818 ft | 468 kts | 282° |
| 2026-02-18 11:10 | 43.15027 | 23.94385 | 39815 ft | 468 kts | 282° |
| 2026-02-18 11:11 | 43.16677 | 23.85808 | 39816 ft | 469 kts | 282° |
| 2026-02-18 11:11 | 43.18355 | 23.77179 | 39813 ft | 469 kts | 282° |
| 2026-02-18 11:12 | 43.20037 | 23.68539 | 39814 ft | 469 kts | 282° |
| 2026-02-18 11:12 | 43.21714 | 23.59891 | 39811 ft | 469 kts | 282° |
| 2026-02-18 11:13 | 43.23384 | 23.51236 | 39818 ft | 469 kts | 282° |
| 2026-02-18 11:13 | 43.25873 | 23.38256 | 39831 ft | 469 kts | 282° |
| 2026-02-18 11:14 | 43.27528 | 23.29579 | 39840 ft | 469 kts | 282° |
| 2026-02-18 11:14 | 43.29162 | 23.20968 | 39843 ft | 469 kts | 282° |
| 2026-02-18 11:15 | 43.30800 | 23.12302 | 39853 ft | 469 kts | 282° |
| 2026-02-18 11:15 | 43.32431 | 23.03632 | 39868 ft | 469 kts | 282° |
| 2026-02-18 11:16 | 43.34054 | 22.94960 | 39878 ft | 469 kts | 282° |
| 2026-02-18 11:16 | 43.35671 | 22.86290 | 39890 ft | 469 kts | 282° |
| 2026-02-18 11:17 | 43.38411 | 22.73377 | 39910 ft | 471 kts | 287° |
| 2026-02-18 11:18 | 43.40713 | 22.64952 | 39921 ft | 471 kts | 288° |
| 2026-02-18 11:18 | 43.43078 | 22.56548 | 39925 ft | 471 kts | 288° |
| 2026-02-18 11:19 | 43.45420 | 22.48196 | 39938 ft | 471 kts | 288° |
| 2026-02-18 11:19 | 43.47762 | 22.39774 | 39941 ft | 471 kts | 288° |
| 2026-02-18 11:20 | 43.50092 | 22.31342 | 39947 ft | 471 kts | 288° |
| 2026-02-18 11:20 | 43.52024 | 22.24323 | 39941 ft | 471 kts | 288° |
| 2026-02-18 11:21 | 43.54344 | 22.15871 | 39962 ft | 471 kts | 288° |
| 2026-02-18 11:21 | 43.58211 | 22.01757 | 39961 ft | 472 kts | 288° |
| 2026-02-18 11:22 | 43.60523 | 21.93291 | 39967 ft | 472 kts | 288° |
| 2026-02-18 11:22 | 43.62820 | 21.84853 | 39964 ft | 472 kts | 288° |
| 2026-02-18 11:23 | 43.65120 | 21.76367 | 39971 ft | 472 kts | 288° |
| 2026-02-18 11:23 | 43.67421 | 21.67859 | 39970 ft | 472 kts | 288° |
| 2026-02-18 11:24 | 43.69715 | 21.59348 | 39972 ft | 472 kts | 288° |
| 2026-02-18 11:24 | 43.72000 | 21.50837 | 39983 ft | 472 kts | 288° |
| 2026-02-18 11:25 | 43.75031 | 21.39497 | 39991 ft | 472 kts | 288° |
| 2026-02-18 11:26 | 43.77302 | 21.30969 | 39988 ft | 472 kts | 288° |
| 2026-02-18 11:26 | 43.79565 | 21.22439 | 39989 ft | 472 kts | 288° |
| 2026-02-18 11:27 | 43.81822 | 21.13900 | 39991 ft | 472 kts | 288° |
| 2026-02-18 11:27 | 43.84071 | 21.05362 | 40000 ft | 472 kts | 288° |
| 2026-02-18 11:28 | 43.86315 | 20.96814 | 40005 ft | 472 kts | 288° |
| 2026-02-18 11:28 | 43.88537 | 20.88316 | 40010 ft | 471 kts | 288° |
| 2026-02-18 11:29 | 43.90765 | 20.79768 | 40012 ft | 471 kts | 288° |
| 2026-02-18 11:29 | 43.94091 | 20.66945 | 40018 ft | 471 kts | 288° |
| 2026-02-18 11:30 | 43.96304 | 20.58375 | 40020 ft | 471 kts | 288° |
| 2026-02-18 11:30 | 43.98506 | 20.49816 | 40019 ft | 471 kts | 288° |
| 2026-02-18 11:31 | 44.00702 | 20.41252 | 40018 ft | 470 kts | 288° |
| 2026-02-18 11:31 | 44.02888 | 20.32694 | 40023 ft | 470 kts | 288° |
| 2026-02-18 11:32 | 44.05066 | 20.24133 | 40019 ft | 470 kts | 288° |
| 2026-02-18 11:32 | 44.07237 | 20.15572 | 40019 ft | 469 kts | 288° |
| 2026-02-18 11:33 | 44.10477 | 20.02737 | 40022 ft | 469 kts | 288° |
| 2026-02-18 11:34 | 44.12631 | 19.94163 | 40022 ft | 469 kts | 288° |
| 2026-02-18 11:34 | 44.14760 | 19.85658 | 40019 ft | 468 kts | 288° |
| 2026-02-18 11:35 | 44.16895 | 19.77094 | 40023 ft | 468 kts | 288° |
| 2026-02-18 11:35 | 44.19023 | 19.68528 | 40025 ft | 468 kts | 288° |
| 2026-02-18 11:36 | 44.21147 | 19.59949 | 40028 ft | 468 kts | 288° |
| 2026-02-18 11:36 | 44.23261 | 19.51372 | 40028 ft | 468 kts | 288° |
| 2026-02-18 11:37 | 44.25369 | 19.42792 | 40029 ft | 468 kts | 288° |
| 2026-02-18 11:37 | 44.28521 | 19.29906 | 40029 ft | 468 kts | 288° |
| 2026-02-18 11:38 | 44.30611 | 19.21313 | 40031 ft | 467 kts | 288° |
| 2026-02-18 11:38 | 44.32695 | 19.12723 | 40036 ft | 467 kts | 288° |
| 2026-02-18 11:39 | 44.34774 | 19.04113 | 40040 ft | 467 kts | 288° |
| 2026-02-18 11:39 | 44.36844 | 18.95511 | 40045 ft | 467 kts | 288° |
| 2026-02-18 11:40 | 44.38905 | 18.86909 | 40049 ft | 467 kts | 288° |
| 2026-02-18 11:40 | 44.40960 | 18.78306 | 40049 ft | 466 kts | 288° |
| 2026-02-18 11:41 | 44.44018 | 18.65435 | 40051 ft | 466 kts | 288° |
| 2026-02-18 11:42 | 44.45724 | 18.58222 | 40051 ft | 466 kts | 288° |
| 2026-02-18 11:42 | 44.48083 | 18.48214 | 40052 ft | 466 kts | 288° |
| 2026-02-18 11:43 | 44.50104 | 18.39599 | 40047 ft | 465 kts | 288° |
| 2026-02-18 11:43 | 44.52118 | 18.30981 | 40046 ft | 465 kts | 288° |
| 2026-02-18 11:44 | 44.54125 | 18.22361 | 40044 ft | 465 kts | 288° |
| 2026-02-18 11:44 | 44.56124 | 18.13741 | 40050 ft | 465 kts | 288° |
| 2026-02-18 11:45 | 44.58115 | 18.05123 | 40045 ft | 464 kts | 288° |
| 2026-02-18 11:45 | 44.61079 | 17.92227 | 40051 ft | 464 kts | 288° |
| 2026-02-18 11:46 | 44.63047 | 17.83624 | 40051 ft | 463 kts | 288° |
| 2026-02-18 11:46 | 44.65008 | 17.75014 | 40048 ft | 463 kts | 288° |
| 2026-02-18 11:47 | 44.66961 | 17.66404 | 40049 ft | 463 kts | 288° |
| 2026-02-18 11:47 | 44.68909 | 17.57788 | 40047 ft | 462 kts | 288° |
| 2026-02-18 11:48 | 44.70837 | 17.49225 | 40043 ft | 462 kts | 288° |
| 2026-02-18 11:48 | 44.72767 | 17.40614 | 40049 ft | 462 kts | 288° |
| 2026-02-18 11:49 | 44.75650 | 17.27693 | 40045 ft | 461 kts | 288° |
| 2026-02-18 11:50 | 44.77560 | 17.19085 | 40050 ft | 461 kts | 288° |
| 2026-02-18 11:50 | 44.79463 | 17.10479 | 40050 ft | 460 kts | 288° |
| 2026-02-18 11:51 | 44.81358 | 17.01868 | 40048 ft | 460 kts | 288° |
| 2026-02-18 11:51 | 44.83246 | 16.93259 | 40044 ft | 460 kts | 288° |
| 2026-02-18 11:52 | 44.85128 | 16.84641 | 40046 ft | 460 kts | 288° |
| 2026-02-18 11:52 | 44.86989 | 16.76086 | 40040 ft | 459 kts | 288° |
| 2026-02-18 11:53 | 44.88854 | 16.67471 | 40039 ft | 459 kts | 288° |
| 2026-02-18 11:53 | 44.91637 | 16.54557 | 40036 ft | 459 kts | 288° |
| 2026-02-18 11:54 | 44.93484 | 16.45939 | 40034 ft | 458 kts | 288° |
| 2026-02-18 11:54 | 44.95322 | 16.37333 | 40028 ft | 458 kts | 288° |
| 2026-02-18 11:55 | 44.97364 | 16.28845 | 40028 ft | 456 kts | 293° |
| 2026-02-18 11:55 | 44.99882 | 16.20615 | 40025 ft | 456 kts | 295° |
| 2026-02-18 11:56 | 45.02484 | 16.12450 | 40021 ft | 455 kts | 295° |
| 2026-02-18 11:56 | 45.05071 | 16.04338 | 40019 ft | 455 kts | 295° |
| 2026-02-18 11:57 | 45.08940 | 15.92085 | 40015 ft | 454 kts | 295° |
| 2026-02-18 11:58 | 45.11501 | 15.83915 | 40017 ft | 454 kts | 295° |
| 2026-02-18 11:58 | 45.14055 | 15.75737 | 40014 ft | 454 kts | 295° |
| 2026-02-18 11:59 | 45.16604 | 15.67553 | 40013 ft | 454 kts | 295° |
| 2026-02-18 11:59 | 45.19142 | 15.59376 | 40018 ft | 454 kts | 295° |
| 2026-02-18 12:00 | 45.21680 | 15.51179 | 40019 ft | 453 kts | 295° |
| 2026-02-18 12:00 | 45.24192 | 15.43038 | 40022 ft | 453 kts | 295° |
| 2026-02-18 12:01 | 45.26717 | 15.34829 | 40016 ft | 453 kts | 295° |
| 2026-02-18 12:01 | 45.30628 | 15.22627 | 40015 ft | 449 kts | 297° |
| 2026-02-18 12:02 | 45.33298 | 15.14920 | 40005 ft | 420 kts | 297° |
| 2026-02-18 12:02 | 45.34569 | 15.11259 | 40002 ft | 407 kts | 297° |
| 2026-02-18 12:02 | 45.35794 | 15.07707 | 40004 ft | 393 kts | 297° |
| 2026-02-18 12:03 | 45.36971 | 15.04277 | 39998 ft | 379 kts | 297° |
| 2026-02-18 12:03 | 45.38102 | 15.00972 | 39997 ft | 365 kts | 297° |
| 2026-02-18 12:03 | 45.39191 | 14.97794 | 39995 ft | 350 kts | 298° |
| 2026-02-18 12:03 | 45.40238 | 14.94746 | 39991 ft | 336 kts | 298° |
| 2026-02-18 12:04 | 45.41236 | 14.91831 | 39993 ft | 320 kts | 298° |
| 2026-02-18 12:04 | 45.42183 | 14.89049 | 39989 ft | 304 kts | 298° |
| 2026-02-18 12:04 | 45.44016 | 14.83649 | 39948 ft | 304 kts | 298° |
| 2026-02-18 12:05 | 45.46457 | 14.76423 | 40002 ft | 306 kts | 298° |
| 2026-02-18 12:06 | 45.48611 | 14.70020 | 40000 ft | 310 kts | 298° |
| 2026-02-18 12:06 | 45.50185 | 14.65331 | 39999 ft | 315 kts | 297° |
| 2026-02-18 12:07 | 45.52401 | 14.58714 | 39997 ft | 322 kts | 297° |
| 2026-02-18 12:07 | 45.54348 | 14.52883 | 39991 ft | 329 kts | 297° |
| 2026-02-18 12:08 | 45.56996 | 14.44930 | 39984 ft | 338 kts | 297° |
| 2026-02-18 12:08 | 45.59388 | 14.37724 | 39979 ft | 349 kts | 297° |
| 2026-02-18 12:09 | 45.61837 | 14.30326 | 39979 ft | 360 kts | 297° |
| 2026-02-18 12:10 | 45.64383 | 14.22628 | 39976 ft | 372 kts | 297° |
| 2026-02-18 12:10 | 45.66990 | 14.14718 | 39976 ft | 385 kts | 297° |
| 2026-02-18 12:11 | 45.68921 | 14.08839 | 39977 ft | 394 kts | 297° |
| 2026-02-18 12:11 | 45.71672 | 14.00429 | 39981 ft | 408 kts | 297° |
| 2026-02-18 12:12 | 45.73691 | 13.94238 | 39983 ft | 418 kts | 297° |
| 2026-02-18 12:12 | 45.76616 | 13.85268 | 39986 ft | 432 kts | 297° |
| 2026-02-18 12:13 | 45.78746 | 13.78714 | 39989 ft | 441 kts | 297° |
| 2026-02-18 12:13 | 45.82642 | 13.66669 | 39997 ft | 444 kts | 297° |
| 2026-02-18 12:14 | 45.85232 | 13.58625 | 39996 ft | 444 kts | 297° |
| 2026-02-18 12:14 | 45.87731 | 13.50513 | 40004 ft | 444 kts | 296° |
| 2026-02-18 12:15 | 45.90124 | 13.42342 | 39985 ft | 444 kts | 296° |
| 2026-02-18 12:15 | 45.92504 | 13.34167 | 39987 ft | 444 kts | 296° |
| 2026-02-18 12:16 | 45.94864 | 13.26049 | 39996 ft | 443 kts | 295° |
| 2026-02-18 12:16 | 45.97227 | 13.17866 | 39997 ft | 442 kts | 295° |
| 2026-02-18 12:17 | 46.00771 | 13.05637 | 39999 ft | 440 kts | 295° |
| 2026-02-18 12:18 | 46.03124 | 12.97520 | 39998 ft | 439 kts | 295° |
| 2026-02-18 12:18 | 46.05464 | 12.89424 | 40002 ft | 437 kts | 295° |
| 2026-02-18 12:19 | 46.07792 | 12.81344 | 39986 ft | 436 kts | 296° |
| 2026-02-18 12:19 | 46.10099 | 12.73302 | 39991 ft | 433 kts | 296° |
| 2026-02-18 12:20 | 46.12385 | 12.65308 | 40008 ft | 430 kts | 296° |
| 2026-02-18 12:20 | 46.14656 | 12.57354 | 40009 ft | 428 kts | 296° |
| 2026-02-18 12:21 | 46.16909 | 12.49430 | 39995 ft | 426 kts | 296° |
| 2026-02-18 12:21 | 46.20254 | 12.37590 | 39987 ft | 424 kts | 296° |
| 2026-02-18 12:22 | 46.22484 | 12.29686 | 39984 ft | 425 kts | 296° |
| 2026-02-18 12:22 | 46.24711 | 12.21754 | 39985 ft | 426 kts | 295° |
| 2026-02-18 12:23 | 46.26931 | 12.13794 | 39995 ft | 428 kts | 295° |
| 2026-02-18 12:23 | 46.29157 | 12.05832 | 39985 ft | 431 kts | 295° |
| 2026-02-18 12:24 | 46.31405 | 11.97775 | 39986 ft | 433 kts | 295° |
| 2026-02-18 12:24 | 46.33644 | 11.89656 | 39991 ft | 436 kts | 294° |
| 2026-02-18 12:25 | 46.36997 | 11.77397 | 39994 ft | 437 kts | 294° |
| 2026-02-18 12:26 | 46.39250 | 11.69207 | 39995 ft | 438 kts | 294° |
| 2026-02-18 12:26 | 46.41499 | 11.61005 | 39990 ft | 439 kts | 294° |
| 2026-02-18 12:27 | 46.43748 | 11.52759 | 39983 ft | 439 kts | 294° |
| 2026-02-18 12:27 | 46.45974 | 11.44575 | 39992 ft | 439 kts | 294° |
| 2026-02-18 12:28 | 46.48205 | 11.36341 | 39997 ft | 439 kts | 294° |
| 2026-02-18 12:28 | 46.50433 | 11.28092 | 39991 ft | 439 kts | 294° |
| 2026-02-18 12:29 | 46.52279 | 11.21236 | 39991 ft | 438 kts | 294° |
| 2026-02-18 12:29 | 46.55976 | 11.07467 | 39972 ft | 438 kts | 294° |
| 2026-02-18 12:30 | 46.58186 | 10.99198 | 39950 ft | 439 kts | 294° |
| 2026-02-18 12:30 | 46.60011 | 10.92329 | 39935 ft | 438 kts | 294° |
| 2026-02-18 12:31 | 46.62564 | 10.82692 | 39905 ft | 438 kts | 294° |
| 2026-02-18 12:31 | 46.64747 | 10.74434 | 39903 ft | 437 kts | 294° |
| 2026-02-18 12:32 | 46.66934 | 10.66181 | 39904 ft | 436 kts | 295° |
| 2026-02-18 12:32 | 46.69098 | 10.57936 | 39907 ft | 435 kts | 294° |
| 2026-02-18 12:33 | 46.72300 | 10.45620 | 39905 ft | 432 kts | 295° |
| 2026-02-18 12:34 | 46.74439 | 10.37446 | 39906 ft | 429 kts | 295° |
| 2026-02-18 12:34 | 46.76732 | 10.29441 | 39902 ft | 427 kts | 297° |
| 2026-02-18 12:35 | 46.77508 | 10.26808 | 39897 ft | 426 kts | 297° |
| 2026-02-18 12:35 | 46.81356 | 10.13637 | 39882 ft | 423 kts | 297° |
| 2026-02-18 12:36 | 46.83629 | 10.05741 | 39886 ft | 421 kts | 297° |
| 2026-02-18 12:36 | 46.85885 | 9.97843 | 39871 ft | 421 kts | 297° |
| 2026-02-18 12:37 | 46.88129 | 9.89960 | 39898 ft | 421 kts | 297° |
| 2026-02-18 12:37 | 46.91445 | 9.78145 | 39892 ft | 417 kts | 296° |
| 2026-02-18 12:38 | 46.93644 | 9.70306 | 39904 ft | 416 kts | 297° |
| 2026-02-18 12:38 | 46.95830 | 9.62491 | 39916 ft | 414 kts | 297° |
| 2026-02-18 12:39 | 46.98010 | 9.54699 | 39926 ft | 413 kts | 297° |
| 2026-02-18 12:39 | 47.00162 | 9.46981 | 39939 ft | 412 kts | 297° |
| 2026-02-18 12:40 | 47.02319 | 9.39216 | 39950 ft | 410 kts | 297° |
| 2026-02-18 12:40 | 47.04455 | 9.31493 | 39948 ft | 408 kts | 297° |
| 2026-02-18 12:41 | 47.07647 | 9.19944 | 39958 ft | 406 kts | 297° |
| 2026-02-18 12:42 | 47.09776 | 9.12277 | 39921 ft | 404 kts | 297° |
| 2026-02-18 12:42 | 47.11871 | 9.04637 | 39942 ft | 403 kts | 296° |
| 2026-02-18 12:43 | 47.13834 | 8.97395 | 39927 ft | 403 kts | 296° |
| 2026-02-18 12:43 | 47.14868 | 8.93578 | 39683 ft | 402 kts | 296° |
| 2026-02-18 12:43 | 47.15896 | 8.89771 | 39231 ft | 400 kts | 296° |
| 2026-02-18 12:43 | 47.16896 | 8.85982 | 38745 ft | 396 kts | 296° |
| 2026-02-18 12:44 | 47.17861 | 8.82203 | 38130 ft | 393 kts | 296° |
| 2026-02-18 12:44 | 47.18733 | 8.78723 | 37600 ft | 390 kts | 296° |
| 2026-02-18 12:44 | 47.19661 | 8.75004 | 37136 ft | 384 kts | 297° |
| 2026-02-18 12:44 | 47.20574 | 8.71352 | 36692 ft | 377 kts | 297° |
| 2026-02-18 12:45 | 47.21473 | 8.67765 | 36276 ft | 371 kts | 298° |
| 2026-02-18 12:45 | 47.23234 | 8.60772 | 35449 ft | 359 kts | 299° |
| 2026-02-18 12:45 | 47.24096 | 8.57355 | 35065 ft | 353 kts | 300° |
| 2026-02-18 12:46 | 47.24943 | 8.53989 | 34665 ft | 347 kts | 300° |
| 2026-02-18 12:46 | 47.25777 | 8.50683 | 34280 ft | 341 kts | 301° |
| 2026-02-18 12:46 | 47.26595 | 8.47435 | 33891 ft | 335 kts | 301° |
| 2026-02-18 12:46 | 47.27402 | 8.44242 | 33445 ft | 330 kts | 301° |
| 2026-02-18 12:47 | 47.28205 | 8.41103 | 33002 ft | 325 kts | 302° |
| 2026-02-18 12:47 | 47.28973 | 8.37989 | 32573 ft | 324 kts | 300° |
| 2026-02-18 12:47 | 47.29511 | 8.34753 | 32146 ft | 329 kts | 293° |
| 2026-02-18 12:47 | 47.29686 | 8.32511 | 31866 ft | 336 kts | 288° |
| 2026-02-18 12:48 | 47.29513 | 8.27819 | 31321 ft | 349 kts | 279° |
| 2026-02-18 12:48 | 47.29107 | 8.24288 | 30916 ft | 350 kts | 277° |
| 2026-02-18 12:48 | 47.28625 | 8.20775 | 30518 ft | 349 kts | 276° |
| 2026-02-18 12:48 | 47.28114 | 8.17296 | 30123 ft | 346 kts | 276° |
| 2026-02-18 12:49 | 47.27600 | 8.13845 | 29673 ft | 343 kts | 276° |
| 2026-02-18 12:49 | 47.26610 | 8.07065 | 28763 ft | 335 kts | 275° |
| 2026-02-18 12:49 | 47.26133 | 8.03732 | 28311 ft | 332 kts | 275° |
| 2026-02-18 12:50 | 47.25664 | 8.00418 | 27877 ft | 328 kts | 275° |
| 2026-02-18 12:50 | 47.25360 | 7.98246 | 27604 ft | 326 kts | 275° |
| 2026-02-18 12:50 | 47.24758 | 7.93956 | 27057 ft | 320 kts | 275° |
| 2026-02-18 12:50 | 47.24308 | 7.90766 | 26670 ft | 317 kts | 274° |
| 2026-02-18 12:51 | 47.23879 | 7.87732 | 26302 ft | 314 kts | 274° |
| 2026-02-18 12:51 | 47.23434 | 7.84599 | 25920 ft | 311 kts | 274° |
| 2026-02-18 12:51 | 47.22991 | 7.81497 | 25533 ft | 308 kts | 274° |
| 2026-02-18 12:51 | 47.22550 | 7.78417 | 25125 ft | 306 kts | 273° |
| 2026-02-18 12:52 | 47.22116 | 7.75368 | 24716 ft | 304 kts | 273° |
| 2026-02-18 12:52 | 47.21968 | 7.74334 | 24568 ft | 304 kts | 273° |
| 2026-02-18 12:52 | 47.21250 | 7.69308 | 23899 ft | 301 kts | 272° |
| 2026-02-18 12:52 | 47.20818 | 7.66302 | 23494 ft | 299 kts | 272° |
| 2026-02-18 12:53 | 47.20389 | 7.63328 | 23019 ft | 297 kts | 271° |
| 2026-02-18 12:53 | 47.19534 | 7.57406 | 22045 ft | 295 kts | 271° |
| 2026-02-18 12:53 | 47.19108 | 7.54465 | 21604 ft | 294 kts | 270° |
| 2026-02-18 12:54 | 47.18688 | 7.51569 | 21159 ft | 294 kts | 270° |
| 2026-02-18 12:54 | 47.18257 | 7.48599 | 20709 ft | 293 kts | 269° |
| 2026-02-18 12:54 | 47.17973 | 7.46654 | 20427 ft | 293 kts | 269° |
| 2026-02-18 12:54 | 47.17546 | 7.43729 | 20014 ft | 292 kts | 269° |
| 2026-02-18 12:55 | 47.16936 | 7.39881 | 19466 ft | 294 kts | 264° |
| 2026-02-18 12:55 | 47.16187 | 7.37030 | 19080 ft | 303 kts | 255° |
| 2026-02-18 12:55 | 47.15484 | 7.35236 | 18820 ft | 311 kts | 247° |
| 2026-02-18 12:55 | 47.13735 | 7.31800 | 18298 ft | 315 kts | 242° |
| 2026-02-18 12:56 | 47.12278 | 7.29369 | 17868 ft | 320 kts | 235° |
| 2026-02-18 12:56 | 47.10668 | 7.27093 | 17414 ft | 321 kts | 233° |
| 2026-02-18 12:56 | 47.09029 | 7.24874 | 16973 ft | 320 kts | 232° |
| 2026-02-18 12:56 | 47.07384 | 7.22688 | 16522 ft | 318 kts | 232° |
| 2026-02-18 12:57 | 47.04110 | 7.18381 | 15689 ft | 315 kts | 231° |
| 2026-02-18 12:57 | 47.02483 | 7.16253 | 15291 ft | 312 kts | 231° |
| 2026-02-18 12:57 | 47.00870 | 7.14149 | 14946 ft | 308 kts | 231° |
| 2026-02-18 12:58 | 46.99817 | 7.12779 | 14744 ft | 304 kts | 231° |
| 2026-02-18 12:58 | 46.97722 | 7.10054 | 14326 ft | 299 kts | 231° |
| 2026-02-18 12:58 | 46.96694 | 7.08716 | 14141 ft | 297 kts | 231° |
| 2026-02-18 12:58 | 46.95152 | 7.06708 | 13845 ft | 295 kts | 230° |
| 2026-02-18 12:59 | 46.93624 | 7.04723 | 13514 ft | 293 kts | 230° |
| 2026-02-18 12:59 | 46.92102 | 7.02747 | 13177 ft | 291 kts | 230° |
| 2026-02-18 12:59 | 46.90591 | 7.00783 | 12839 ft | 289 kts | 230° |
| 2026-02-18 12:59 | 46.89089 | 6.98836 | 12539 ft | 287 kts | 229° |
| 2026-02-18 13:00 | 46.87599 | 6.96906 | 12268 ft | 286 kts | 229° |
| 2026-02-18 13:00 | 46.86113 | 6.94984 | 11991 ft | 284 kts | 229° |
| 2026-02-18 13:00 | 46.84639 | 6.93077 | 11735 ft | 283 kts | 229° |
| 2026-02-18 13:00 | 46.83164 | 6.91172 | 11485 ft | 282 kts | 229° |
| 2026-02-18 13:01 | 46.80280 | 6.87458 | 10967 ft | 270 kts | 227° |
| 2026-02-18 13:01 | 46.78883 | 6.85694 | 10910 ft | 260 kts | 227° |
| 2026-02-18 13:01 | 46.77548 | 6.84016 | 10906 ft | 248 kts | 227° |
| 2026-02-18 13:02 | 46.76274 | 6.82403 | 10911 ft | 244 kts | 228° |
| 2026-02-18 13:02 | 46.75001 | 6.80773 | 10908 ft | 244 kts | 228° |
| 2026-02-18 13:02 | 46.73731 | 6.79133 | 10910 ft | 244 kts | 229° |
| 2026-02-18 13:02 | 46.72465 | 6.77488 | 10909 ft | 244 kts | 229° |
| 2026-02-18 13:03 | 46.71195 | 6.75846 | 10907 ft | 245 kts | 228° |
| 2026-02-18 13:03 | 46.69919 | 6.74200 | 10908 ft | 245 kts | 229° |
| 2026-02-18 13:03 | 46.68647 | 6.72553 | 10907 ft | 245 kts | 229° |
| 2026-02-18 13:03 | 46.67376 | 6.70905 | 10903 ft | 245 kts | 229° |
| 2026-02-18 13:04 | 46.66101 | 6.69259 | 10688 ft | 244 kts | 229° |
| 2026-02-18 13:04 | 46.64824 | 6.67618 | 10409 ft | 244 kts | 228° |
| 2026-02-18 13:04 | 46.63554 | 6.65987 | 10136 ft | 244 kts | 227° |
| 2026-02-18 13:04 | 46.62444 | 6.64565 | 9890 ft | 244 kts | 227° |
| 2026-02-18 13:05 | 46.59896 | 6.61314 | 9305 ft | 243 kts | 227° |
| 2026-02-18 13:05 | 46.58623 | 6.59694 | 9004 ft | 242 kts | 227° |
| 2026-02-18 13:05 | 46.57360 | 6.58085 | 8703 ft | 240 kts | 227° |
| 2026-02-18 13:06 | 46.56123 | 6.56512 | 8375 ft | 230 kts | 227° |
| 2026-02-18 13:06 | 46.54937 | 6.55007 | 8105 ft | 226 kts | 227° |
| 2026-02-18 13:06 | 46.53755 | 6.53502 | 7817 ft | 225 kts | 227° |
| 2026-02-18 13:06 | 46.52579 | 6.52009 | 7551 ft | 223 kts | 227° |
| 2026-02-18 13:07 | 46.51424 | 6.50539 | 7362 ft | 220 kts | 227° |
| 2026-02-18 13:07 | 46.50286 | 6.49098 | 7174 ft | 214 kts | 227° |
| 2026-02-18 13:07 | 46.49179 | 6.47698 | 6988 ft | 209 kts | 227° |
| 2026-02-18 13:07 | 46.48087 | 6.46317 | 6807 ft | 207 kts | 227° |
| 2026-02-18 13:08 | 46.47007 | 6.44959 | 6628 ft | 204 kts | 226° |
| 2026-02-18 13:08 | 46.45974 | 6.43602 | 6449 ft | 197 kts | 229° |
| 2026-02-18 13:08 | 46.45019 | 6.42207 | 6261 ft | 193 kts | 231° |
| 2026-02-18 13:08 | 46.44100 | 6.40830 | 6066 ft | 192 kts | 231° |
| 2026-02-18 13:09 | 46.42252 | 6.38054 | 6005 ft | 190 kts | 231° |
| 2026-02-18 13:09 | 46.41337 | 6.36702 | 5998 ft | 187 kts | 230° |
| 2026-02-18 13:09 | 46.40427 | 6.35359 | 6006 ft | 187 kts | 230° |
| 2026-02-18 13:10 | 46.39513 | 6.34015 | 5988 ft | 188 kts | 230° |
| 2026-02-18 13:10 | 46.38546 | 6.32722 | 5666 ft | 191 kts | 229° |
| 2026-02-18 13:10 | 46.37655 | 6.31253 | 5174 ft | 199 kts | 230° |
| 2026-02-18 13:10 | 46.36632 | 6.29844 | 4678 ft | 202 kts | 228° |
| 2026-02-18 13:11 | 46.35710 | 6.28419 | 4372 ft | 186 kts | 229° |
| 2026-02-18 13:11 | 46.34885 | 6.27207 | 4136 ft | 172 kts | 227° |
| 2026-02-18 13:11 | 46.34065 | 6.26007 | 3900 ft | 165 kts | 227° |
| 2026-02-18 13:11 | 46.33266 | 6.24824 | 3682 ft | 162 kts | 228° |
| 2026-02-18 13:12 | 46.32509 | 6.23700 | 3459 ft | 150 kts | 227° |
| 2026-02-18 13:12 | 46.31809 | 6.22671 | 3263 ft | 137 kts | 227° |
| 2026-02-18 13:12 | 46.31161 | 6.21714 | 3093 ft | 130 kts | 226° |
| 2026-02-18 13:12 | 46.30533 | 6.20795 | 2908 ft | 128 kts | 225° |
| 2026-02-18 13:13 | 46.29690 | 6.19551 | 2683 ft | 130 kts | 226° |
| 2026-02-18 13:13 | 46.28650 | 6.18019 | 2389 ft | 128 kts | 226° |
| 2026-02-18 13:13 | 46.28447 | 6.17720 | 2336 ft | 128 kts | 226° |
| 2026-02-18 13:14 | 46.28237 | 6.17410 | 2295 ft | 128 kts | 226° |
| 2026-02-18 13:14 | 46.27156 | 6.15836 | 2059 ft | 143 kts | 224° |
| 2026-02-18 13:14 | 46.25385 | 6.13205 | 1483 ft | 135 kts | 222° |
| 2026-02-18 13:15 | 46.24750 | 6.12299 | 1404 ft | 120 kts | 224° |
| 2026-02-18 13:15 | 46.24222 | 6.11526 | 1377 ft | 83 kts | 226° |
| 2026-02-18 13:15 | 46.24032 | 6.11231 | 1379 ft | 0 kts | 227° |
| 2026-02-18 13:15 | 46.23975 | 6.11144 | 1380 ft | 19 kts | 227° |
| 2026-02-18 13:16 | 46.23893 | 6.11078 | 1383 ft | 11 kts | 179° |
| 2026-02-18 13:16 | 46.23824 | 6.11081 | 1381 ft | 10 kts | 177° |
| 2026-02-18 13:16 | 46.23810 | 6.11085 | 1382 ft | 0 kts | 171° |
| 2026-02-18 13:18 | 46.23790 | 6.11089 | 1385 ft | 3 kts | 171° |
| 2026-02-18 13:19 | 46.23768 | 6.11093 | 1386 ft | 3 kts | 176° |
| 2026-02-18 13:19 | 46.23752 | 6.11093 | 1388 ft | 2 kts | 180° |
| 2026-02-18 13:19 | 46.23729 | 6.11088 | 1402 ft | 5 kts | 193° |
| 2026-02-18 13:19 | 46.23689 | 6.11080 | 1400 ft | 4 kts | 175° |
| 2026-02-18 13:20 | 46.23664 | 6.11095 | 1407 ft | 5 kts | 150° |
| 2026-02-18 13:20 | 46.23622 | 6.11140 | 1407 ft | 9 kts | 143° |
| 2026-02-18 13:20 | 46.23576 | 6.11144 | 1404 ft | 6 kts | 193° |
| 2026-02-18 13:20 | 46.23536 | 6.11129 | 1402 ft | 7 kts | 179° |
| 2026-02-18 13:21 | 46.23481 | 6.11182 | 1408 ft | 0 kts | 137° |